createdAt,value
2022-12-20T00:01:38.138Z,102514.75
2022-12-20T00:04:41.622Z,102500.34
2022-12-20T00:07:44.733Z,102513.66
2022-12-20T00:10:49.285Z,102512.75
2022-12-20T00:13:53.184Z,102516.41
2022-12-20T00:16:57.035Z,102526.78
2022-12-20T00:19:59.846Z,102524.25
2022-12-20T00:23:03.819Z,102525.69
2022-12-20T00:26:10.928Z,102532.44
2022-12-20T00:29:13.948Z,102537.00
2022-12-20T00:32:16.592Z,102539.91
2022-12-20T00:35:20.308Z,102534.97
2022-12-20T00:38:25.652Z,102522.56
2022-12-20T00:41:33.501Z,102517.63
2022-12-20T00:44:36.767Z,102522.38
2022-12-20T00:47:39.718Z,102526.00
2022-12-20T00:50:42.356Z,102523.47
2022-12-20T00:53:46.352Z,102508.47
2022-12-20T00:56:49.259Z,102501.37
2022-12-20T00:59:52.023Z,102497.75
2022-12-20T01:02:54.924Z,102490.06
2022-12-20T01:06:03.107Z,102480.03
2022-12-20T01:09:07.022Z,102479.62
2022-12-20T01:12:09.831Z,102482.00
2022-12-20T01:15:13.114Z,102488.03
2022-12-20T01:18:16.708Z,102486.59
2022-12-20T01:21:26.025Z,102485.88
2022-12-20T01:24:29.765Z,102479.12
2022-12-20T01:27:32.639Z,102478.38
2022-12-20T01:30:40.823Z,102485.31
2022-12-20T01:33:46.375Z,102485.31
2022-12-20T01:36:49.660Z,102475.28
2022-12-20T01:39:52.765Z,102461.94
2022-12-20T01:42:56.634Z,102462.12
2022-12-20T01:45:59.937Z,102465.41
2022-12-20T01:49:12.077Z,102453.53
2022-12-20T01:52:23.495Z,102436.22
2022-12-20T01:55:28.715Z,102425.97
2022-12-20T01:58:32.555Z,102432.91
2022-12-20T02:01:36.108Z,102424.91
2022-12-20T02:04:39.777Z,102426.37
2022-12-20T02:07:46.084Z,102422.34
2022-12-20T02:11:16.255Z,102405.53
2022-12-20T02:14:49.275Z,102402.06
2022-12-20T02:18:14.893Z,102392.94
2022-12-20T02:21:20.913Z,102392.94
2022-12-20T02:24:40.005Z,102386.91
2022-12-20T02:28:22.049Z,102381.81
2022-12-20T02:31:31.853Z,102376.50
2022-12-20T02:34:38.269Z,102382.37
2022-12-20T02:37:49.787Z,102391.50
2022-12-20T02:40:59.430Z,102368.50
2022-12-20T02:44:28.189Z,102368.31
2022-12-20T02:47:36.470Z,102381.09
2022-12-20T02:50:49.846Z,102389.28
2022-12-20T02:53:53.316Z,102380.88
2022-12-20T02:57:02.473Z,102390.94
2022-12-20T03:00:18.811Z,102388.38
2022-12-20T03:03:25.225Z,102381.44
2022-12-20T03:06:28.136Z,102377.25
2022-12-20T03:09:41.502Z,102387.66
2022-12-20T03:12:44.500Z,102376.00
2022-12-20T03:15:47.978Z,102370.50
2022-12-20T03:18:51.367Z,102350.22
2022-12-20T03:21:55.593Z,102352.22
2022-12-20T03:24:58.108Z,102352.41
2022-12-20T03:28:02.258Z,102344.00
2022-12-20T03:31:05.551Z,102344.34
2022-12-20T03:34:09.955Z,102339.41
2022-12-20T03:37:13.539Z,102349.06
2022-12-20T03:40:16.760Z,102341.22
2022-12-20T03:43:20.733Z,102333.53
2022-12-20T03:46:23.925Z,102332.63
2022-12-20T03:49:27.386Z,102327.91
2022-12-20T03:52:31.149Z,102336.31
2022-12-20T03:55:33.810Z,102336.88
2022-12-20T03:58:37.116Z,102333.59
2022-12-20T04:01:40.970Z,102334.16
2022-12-20T04:04:44.060Z,102344.94
2022-12-20T04:07:46.970Z,102332.72
2022-12-20T04:11:08.558Z,102336.53
2022-12-20T04:14:11.792Z,102340.41
2022-12-20T04:17:15.561Z,102336.59
2022-12-20T04:20:20.017Z,102336.97
2022-12-20T04:23:24.156Z,102327.31
2022-12-20T04:26:27.201Z,102316.91
2022-12-20T04:29:32.105Z,102313.09
2022-12-20T04:32:35.015Z,102309.62
2022-12-20T04:35:38.537Z,102293.22
2022-12-20T04:38:41.617Z,102292.31
2022-12-20T04:41:44.802Z,102299.41
2022-12-20T04:44:51.304Z,102292.66
2022-12-20T04:47:56.720Z,102290.09
2022-12-20T04:51:00.794Z,102292.44
2022-12-20T04:54:03.994Z,102288.78
2022-12-20T04:57:09.979Z,102278.91
2022-12-20T05:00:18.252Z,102272.88
2022-12-20T05:03:23.245Z,102279.75
2022-12-20T05:06:26.973Z,102287.94
2022-12-20T05:09:29.853Z,102306.50
2022-12-20T05:12:33.247Z,102302.13
2022-12-20T05:15:37.868Z,102308.72
2022-12-20T05:18:48.612Z,102318.59
2022-12-20T05:22:12.220Z,102320.97
2022-12-20T05:25:37.574Z,102316.81
2022-12-20T05:28:45.231Z,102321.03
2022-12-20T05:31:48.824Z,102324.50
2022-12-20T05:34:52.084Z,102331.44
2022-12-20T05:37:59.855Z,102328.87
2022-12-20T05:41:06.781Z,102328.13
2022-12-20T05:44:09.789Z,102333.59
2022-12-20T05:47:13.383Z,102337.22
2022-12-20T05:50:19.164Z,102337.97
2022-12-20T05:53:38.666Z,102321.16
2022-12-20T05:56:49.114Z,102322.97
2022-12-20T05:59:58.199Z,102323.88
2022-12-20T06:03:10.583Z,102317.87
2022-12-20T06:06:15.413Z,102313.66
2022-12-20T06:09:19.267Z,102313.50
2022-12-20T06:12:24.334Z,102303.25
2022-12-20T06:15:29.733Z,102297.06
2022-12-20T06:18:35.631Z,102284.13
2022-12-20T06:21:41.201Z,102292.53
2022-12-20T06:24:48.576Z,102287.97
2022-12-20T06:27:53.524Z,102295.31
2022-12-20T06:30:59.091Z,102288.38
2022-12-20T06:34:02.375Z,102288.00
2022-12-20T06:37:06.469Z,102279.25
2022-12-20T06:40:13.308Z,102280.72
2022-12-20T06:43:17.096Z,102274.31
2022-12-20T06:46:20.804Z,102277.78
2022-12-20T06:49:26.114Z,102268.66
2022-12-20T06:52:30.237Z,102276.28
2022-12-20T06:55:34.735Z,102275.28
2022-12-20T06:58:39.205Z,102278.97
2022-12-20T07:01:45.166Z,102283.41
2022-12-20T07:04:52.773Z,102266.34
2022-12-20T07:07:56.122Z,102260.84
2022-12-20T07:11:08.666Z,102270.16
2022-12-20T07:14:11.922Z,102262.69
2022-12-20T07:17:17.186Z,102252.44
2022-12-20T07:20:22.584Z,102260.09
2022-12-20T07:23:27.992Z,102255.50
2022-12-20T07:26:36.867Z,102240.47
2022-12-20T07:29:43.192Z,102244.63
2022-12-20T07:32:49.203Z,102249.25
2022-12-20T07:35:54.843Z,102252.56
2022-12-20T07:38:58.525Z,102253.37
2022-12-20T07:42:02.499Z,102234.44
2022-12-20T07:45:17.562Z,102252.16
2022-12-20T07:48:23.948Z,102254.13
2022-12-20T07:51:36.762Z,102254.44
2022-12-20T07:54:58.230Z,102248.00
2022-12-20T07:58:07.379Z,102251.91
2022-12-20T08:01:13.205Z,102253.47
2022-12-20T08:04:21.771Z,102238.69
2022-12-20T08:07:27.793Z,102237.34
2022-12-20T08:10:31.463Z,102231.09
2022-12-20T08:13:34.428Z,102230.28
2022-12-20T08:16:37.356Z,102224.47
2022-12-20T08:19:41.660Z,102215.75
2022-12-20T08:22:48.414Z,102207.28
2022-12-20T08:25:52.595Z,102216.09
2022-12-20T08:28:56.807Z,102202.44
2022-12-20T08:32:01.220Z,102203.37
2022-12-20T08:35:07.215Z,102206.81
2022-12-20T08:38:12.224Z,102210.84
2022-12-20T08:41:16.859Z,102208.25
2022-12-20T08:44:22.381Z,102205.75
2022-12-20T08:47:27.407Z,102207.03
2022-12-20T08:50:32.653Z,102201.38
2022-12-20T08:53:44.191Z,102197.88
2022-12-20T08:56:48.302Z,102195.03
2022-12-20T08:59:51.848Z,102192.19
2022-12-20T09:02:56.094Z,102201.12
2022-12-20T09:06:05.665Z,102202.34
2022-12-20T09:09:09.321Z,102186.91
2022-12-20T09:12:17.204Z,102178.28
2022-12-20T09:15:21.142Z,102185.63
2022-12-20T09:18:25.131Z,102189.53
2022-12-20T09:21:30.042Z,102197.25
2022-12-20T09:24:33.191Z,102203.56
2022-12-20T09:27:36.033Z,102195.63
2022-12-20T09:30:41.892Z,102198.28
2022-12-20T09:33:47.290Z,102201.94
2022-12-20T09:36:51.748Z,102200.09
2022-12-20T09:39:58.281Z,102190.34
2022-12-20T09:43:02.174Z,102179.97
2022-12-20T09:46:07.127Z,102165.59
2022-12-20T09:49:19.357Z,102144.41
2022-12-20T09:52:30.872Z,102137.53
2022-12-20T09:56:03.698Z,102147.38
2022-12-20T09:59:12.547Z,102152.37
2022-12-20T10:05:54.184Z,102139.66
2022-12-20T10:09:00.897Z,102138.31
2022-12-20T10:12:15.836Z,102150.72
2022-12-20T10:15:30.427Z,102127.75
2022-12-20T10:19:14.118Z,102128.94
2022-12-20T10:22:27.112Z,102131.97
2022-12-20T10:25:35.298Z,102133.94
2022-12-20T10:28:46.863Z,102111.44
2022-12-20T10:32:01.001Z,102111.09
2022-12-20T10:35:10.117Z,102101.97
2022-12-20T10:38:27.069Z,102098.69
2022-12-20T10:41:55.593Z,102086.84
2022-12-20T10:45:00.466Z,102081.31
2022-12-20T10:48:08.152Z,102068.38
2022-12-20T10:51:16.449Z,102072.41
2022-12-20T10:54:48.215Z,102064.03
2022-12-20T10:57:54.405Z,102050.28
2022-12-20T11:01:19.736Z,102051.22
2022-12-20T11:04:35.181Z,102048.31
2022-12-20T11:08:33.704Z,102047.37
2022-12-20T11:11:25.014Z,102043.34
2022-12-20T11:14:38.865Z,102037.31
2022-12-20T11:17:56.068Z,102038.84
2022-12-20T11:21:24.320Z,102038.69
2022-12-20T11:25:01.189Z,102016.63
2022-12-20T11:28:22.212Z,102004.75
2022-12-20T11:31:37.410Z,102000.50
2022-12-20T11:34:52.993Z,101996.44
2022-12-20T11:38:17.186Z,102001.09
2022-12-20T11:41:33.038Z,102008.81
2022-12-20T11:45:09.617Z,101991.75
2022-12-20T11:48:48.738Z,101984.84
2022-12-20T11:52:14.995Z,101994.56
2022-12-20T11:55:38.011Z,101997.88
2022-12-20T11:59:02.587Z,101994.16
2022-12-20T12:02:42.233Z,101985.19
2022-12-20T12:06:06.260Z,101984.03
2022-12-20T12:09:09.699Z,101975.47
2022-12-20T12:12:33.048Z,101983.34
2022-12-20T12:16:02.513Z,101980.69
2022-12-20T12:19:11.688Z,101973.66
2022-12-20T12:22:25.281Z,101966.56
2022-12-20T12:25:28.651Z,101964.00
2022-12-20T12:28:37.166Z,101964.75
2022-12-20T12:31:51.339Z,101956.22
2022-12-20T12:35:06.151Z,101953.50
2022-12-20T12:38:44.494Z,101948.66
2022-12-20T12:42:30.805Z,101950.16
2022-12-20T12:45:44.400Z,101941.25
2022-12-20T12:48:57.702Z,101938.84
2022-12-20T12:52:05.621Z,101933.72
2022-12-20T12:55:40.085Z,101926.97
2022-12-20T12:59:08.164Z,101928.03
2022-12-20T13:02:15.650Z,101926.62
2022-12-20T13:05:32.780Z,101925.94
2022-12-20T13:08:51.430Z,101925.03
2022-12-20T13:12:01.458Z,101923.50
2022-12-20T13:15:22.339Z,101930.94
2022-12-20T13:18:29.199Z,101923.72
2022-12-20T13:21:41.192Z,101916.91
2022-12-20T13:24:48.465Z,101915.22
2022-12-20T13:27:51.220Z,101913.00
2022-12-20T13:31:01.644Z,101917.38
2022-12-20T13:34:47.136Z,101912.09
2022-12-20T13:38:26.131Z,101906.41
2022-12-20T13:41:45.059Z,101903.06
2022-12-20T13:44:56.103Z,101907.94
2022-12-20T13:48:11.507Z,101897.66
2022-12-20T13:51:18.840Z,101895.84
2022-12-20T13:54:27.164Z,101894.03
2022-12-20T13:57:46.718Z,101883.75
2022-12-20T14:00:52.108Z,101869.56
2022-12-20T14:04:06.163Z,101864.91
2022-12-20T14:07:19.305Z,101864.63
2022-12-20T14:10:33.109Z,101865.13
2022-12-20T14:13:36.423Z,101862.12
2022-12-20T14:16:42.214Z,101853.38
2022-12-20T14:19:47.654Z,101849.75
2022-12-20T14:23:04.689Z,101855.66
2022-12-20T14:26:17.657Z,101859.78
2022-12-20T14:29:35.092Z,101858.47
2022-12-20T14:32:41.793Z,101858.00
2022-12-20T14:35:50.120Z,101845.78
2022-12-20T14:38:54.115Z,101837.37
2022-12-20T14:42:20.352Z,101837.84
2022-12-20T14:45:33.114Z,101820.53
2022-12-20T14:48:36.909Z,101820.25
2022-12-20T14:51:46.609Z,101815.47
2022-12-20T14:55:10.383Z,101812.63
2022-12-20T14:58:38.095Z,101808.72
2022-12-20T15:01:45.332Z,101812.41
2022-12-20T15:04:52.669Z,101815.44
2022-12-20T15:07:56.012Z,101815.94
2022-12-20T15:11:11.312Z,101820.63
2022-12-20T15:14:37.184Z,101817.75
2022-12-20T15:17:51.008Z,101811.56
2022-12-20T15:21:09.025Z,101824.88
2022-12-20T15:24:21.884Z,101811.34
2022-12-20T15:27:27.095Z,101804.25
2022-12-20T15:30:33.308Z,101802.87
2022-12-20T15:33:47.124Z,101811.62
2022-12-20T15:36:53.648Z,101809.19
2022-12-20T15:40:03.145Z,101816.47
2022-12-20T15:43:07.160Z,101807.44
2022-12-20T15:46:32.136Z,101822.69
2022-12-20T15:49:50.396Z,101824.38
2022-12-20T15:53:03.099Z,101835.53
2022-12-20T15:56:19.436Z,101839.63
2022-12-20T16:03:02.212Z,101832.72
2022-12-20T16:06:20.074Z,101831.69
2022-12-20T16:09:27.791Z,101831.09
2022-12-20T16:12:37.293Z,101841.06
2022-12-20T16:15:55.105Z,101838.97
2022-12-20T16:19:11.860Z,101830.22
2022-12-20T16:22:28.964Z,101835.06
2022-12-20T16:25:36.366Z,101825.41
2022-12-20T16:28:39.870Z,101823.59
2022-12-20T16:32:06.170Z,101833.72
2022-12-20T16:35:38.294Z,101829.22
2022-12-20T16:38:59.186Z,101820.47
2022-12-20T16:42:24.101Z,101812.75
2022-12-20T16:45:37.112Z,101815.16
2022-12-20T16:48:55.260Z,101808.34
2022-12-20T16:52:03.335Z,101817.72
2022-12-20T16:55:18.115Z,101807.31
2022-12-20T16:58:38.615Z,101807.31
2022-12-20T17:01:47.880Z,101800.97
2022-12-20T17:05:01.128Z,101799.47
2022-12-20T17:11:37.608Z,101792.66
2022-12-20T17:14:43.078Z,101798.56
2022-12-20T17:17:55.439Z,101793.91
2022-12-20T17:21:05.224Z,101788.63
2022-12-20T17:24:18.749Z,101801.44
2022-12-20T17:27:28.744Z,101798.88
2022-12-20T17:30:40.082Z,101786.97
2022-12-20T17:33:45.078Z,101786.81
2022-12-20T17:36:56.054Z,101790.28
2022-12-20T17:40:08.030Z,101781.69
2022-12-20T17:43:22.933Z,101773.53
2022-12-20T17:46:28.051Z,101780.47
2022-12-20T17:49:34.056Z,101790.59
2022-12-20T17:52:42.247Z,101792.25
2022-12-20T17:55:49.035Z,101790.91
2022-12-20T17:59:09.074Z,101802.84
2022-12-20T18:02:24.204Z,101784.75
2022-12-20T18:05:27.648Z,101784.44
2022-12-20T18:08:35.142Z,101779.31
2022-12-20T18:11:46.030Z,101775.38
2022-12-20T18:14:50.776Z,101767.41
2022-12-20T18:18:00.158Z,101757.00
2022-12-20T18:21:17.107Z,101759.25
2022-12-20T18:24:31.074Z,101757.94
2022-12-20T18:27:46.311Z,101754.91
2022-12-20T18:30:53.015Z,101746.19
2022-12-20T18:33:59.514Z,101735.47
2022-12-20T18:37:10.210Z,101734.56
2022-12-20T18:40:21.431Z,101720.09
2022-12-20T18:43:38.112Z,101726.59
2022-12-20T18:46:41.759Z,101720.41
2022-12-20T18:49:45.095Z,101721.47
2022-12-20T18:52:59.503Z,101721.47
2022-12-20T18:56:10.135Z,101718.00
2022-12-20T18:59:27.100Z,101720.41
2022-12-20T19:02:32.380Z,101714.84
2022-12-20T19:05:36.754Z,101712.75
2022-12-20T19:08:43.908Z,101712.47
2022-12-20T19:11:56.992Z,101704.59
2022-12-20T19:15:04.268Z,101708.50
2022-12-20T19:18:12.435Z,101711.53
2022-12-20T19:21:24.167Z,101702.03
2022-12-20T19:24:27.606Z,101703.72
2022-12-20T19:27:44.497Z,101693.44
2022-12-20T19:30:51.497Z,101690.44
2022-12-20T19:34:06.103Z,101681.09
2022-12-20T19:37:20.052Z,101692.84
2022-12-20T19:40:31.969Z,101700.97
2022-12-20T19:43:39.106Z,101699.47
2022-12-20T19:46:47.738Z,101706.72
2022-12-20T19:49:52.941Z,101701.59
2022-12-20T19:53:01.259Z,101709.28
2022-12-20T19:56:14.083Z,101704.00
2022-12-20T19:59:21.414Z,101709.28
2022-12-20T20:02:27.071Z,101707.63
2022-12-20T20:05:30.739Z,101705.81
2022-12-20T20:08:42.976Z,101706.72
2022-12-20T20:11:48.248Z,101716.66
2022-12-20T20:14:54.309Z,101719.84
2022-12-20T20:18:00.058Z,101715.47
2022-12-20T20:21:21.116Z,101705.97
2022-12-20T20:24:29.066Z,101704.00
2022-12-20T20:27:34.051Z,101705.34
2022-12-20T20:30:44.834Z,101703.38
2022-12-20T20:33:48.607Z,101702.50
2022-12-20T20:36:54.081Z,101711.22
2022-12-20T20:39:59.539Z,101711.84
2022-12-20T20:43:09.153Z,101702.94
2022-12-20T20:46:20.285Z,101692.41
2022-12-20T20:49:23.775Z,101683.53
2022-12-20T20:52:28.365Z,101690.31
2022-12-20T20:55:33.034Z,101695.28
2022-12-20T20:58:42.319Z,101679.47
2022-12-20T21:01:48.230Z,101682.62
2022-12-20T21:05:47.174Z,101682.03
2022-12-20T21:08:22.045Z,101685.19
2022-12-20T21:11:26.313Z,101687.16
2022-12-20T21:15:10.691Z,101681.13
2022-12-20T21:17:55.686Z,101669.69
2022-12-20T21:21:01.151Z,101672.09
2022-12-20T21:24:04.763Z,101665.59
2022-12-20T21:27:20.967Z,101664.84
2022-12-20T21:30:31.616Z,101662.44
2022-12-20T21:33:40.041Z,101671.03
2022-12-20T21:36:47.982Z,101655.94
2022-12-20T21:39:51.540Z,101646.44
2022-12-20T21:42:55.661Z,101640.72
2022-12-20T21:46:00.036Z,101653.38
2022-12-20T21:49:09.159Z,101648.53
2022-12-20T21:52:12.523Z,101634.06
2022-12-20T21:55:15.064Z,101629.84
2022-12-20T21:58:20.981Z,101635.56
2022-12-20T22:01:27.161Z,101614.31
2022-12-20T22:04:30.790Z,101618.06
2022-12-20T22:07:38.514Z,101609.94
2022-12-20T22:10:44.445Z,101595.47
2022-12-20T22:13:47.666Z,101600.72
2022-12-20T22:16:51.412Z,101595.00
2022-12-20T22:19:57.921Z,101586.53
2022-12-20T22:23:02.534Z,101578.22
2022-12-20T22:26:07.629Z,101563.47
2022-12-20T22:29:11.748Z,101570.53
2022-12-20T22:32:24.916Z,101584.25
2022-12-20T22:35:29.962Z,101574.91
2022-12-20T22:38:34.184Z,101578.66
2022-12-20T22:41:37.409Z,101565.09
2022-12-20T22:44:42.326Z,101557.38
2022-12-20T22:47:46.977Z,101553.16
2022-12-20T22:50:49.707Z,101546.38
2022-12-20T22:53:53.773Z,101535.22
2022-12-20T22:56:56.569Z,101543.06
2022-12-20T23:00:03.212Z,101538.22
2022-12-20T23:03:09.324Z,101545.91
2022-12-20T23:06:17.935Z,101540.91
2022-12-20T23:09:20.910Z,101542.56
2022-12-20T23:12:44.744Z,101544.38
2022-12-20T23:15:49.602Z,101539.25
2022-12-20T23:19:01.569Z,101527.47
2022-12-20T23:22:22.983Z,101526.56
2022-12-20T23:25:33.019Z,101511.94
2022-12-20T23:28:35.579Z,101507.87
2022-12-20T23:31:39.005Z,101510.72
2022-12-20T23:34:42.102Z,101514.19
2022-12-20T23:37:46.363Z,101508.44
2022-12-20T23:40:50.202Z,101496.50
2022-12-20T23:43:53.091Z,101485.50
2022-12-20T23:46:57.300Z,101480.34
2022-12-20T23:50:00.047Z,101480.34
2022-12-20T23:53:04.662Z,101470.87
2022-12-20T23:56:22.233Z,101464.97
2022-12-20T23:59:25.648Z,101470.25
